createdAt,value
2023-03-28T00:01:07.834Z,1.90
2023-03-28T00:03:39.357Z,1.90
2023-03-28T00:06:11.281Z,1.90
2023-03-28T00:08:40.943Z,1.80
2023-03-28T00:11:11.460Z,1.90
2023-03-28T00:13:41.053Z,1.90
2023-03-28T00:16:12.554Z,1.90
2023-03-28T00:18:42.720Z,1.90
2023-03-28T00:21:23.318Z,1.90
2023-03-28T00:23:53.872Z,1.80
2023-03-28T00:26:24.737Z,1.80
2023-03-28T00:28:54.742Z,1.80
2023-03-28T00:31:23.277Z,1.70
2023-03-28T00:33:51.568Z,1.80
2023-03-28T00:36:22.942Z,1.80
2023-03-28T00:38:52.373Z,1.80
2023-03-28T00:41:21.926Z,1.80
2023-03-28T00:43:52.680Z,1.70
2023-03-28T00:46:26.388Z,1.70
2023-03-28T00:48:57.500Z,1.60
2023-03-28T00:51:31.312Z,1.70
2023-03-28T00:54:01.985Z,1.60
2023-03-28T00:56:34.818Z,1.60
2023-03-28T00:59:08.001Z,1.50
2023-03-28T01:01:37.667Z,1.50
2023-03-28T01:04:06.897Z,1.50
2023-03-28T01:06:38.144Z,1.50
2023-03-28T01:09:09.183Z,1.50
2023-03-28T01:11:39.651Z,1.50
2023-03-28T01:14:13.236Z,1.50
2023-03-28T01:16:43.178Z,1.50
2023-03-28T01:19:22.054Z,1.50
2023-03-28T01:22:26.947Z,1.60
2023-03-28T01:25:20.450Z,1.50
2023-03-28T01:27:53.292Z,1.60
2023-03-28T01:30:47.555Z,1.50
2023-03-28T01:33:39.642Z,1.60
2023-03-28T01:36:49.422Z,1.50
2023-03-28T01:39:29.985Z,1.40
2023-03-28T01:42:03.595Z,1.40
2023-03-28T01:44:38.052Z,1.40
2023-03-28T01:47:12.753Z,1.30
2023-03-28T01:49:48.443Z,1.30
2023-03-28T01:52:22.948Z,1.30
2023-03-28T01:54:58.323Z,1.30
2023-03-28T01:57:30.803Z,1.30
2023-03-28T02:00:11.550Z,1.30
2023-03-28T02:02:44.770Z,1.20
2023-03-28T02:05:15.829Z,1.20
2023-03-28T02:07:48.274Z,1.20
2023-03-28T02:10:19.226Z,1.10
2023-03-28T02:12:50.146Z,1.20
2023-03-28T02:15:21.716Z,1.20
2023-03-28T02:17:55.567Z,1.10
2023-03-28T02:20:28.672Z,1.10
2023-03-28T02:23:01.974Z,1.10
2023-03-28T02:25:31.867Z,1.10
2023-03-28T02:28:03.548Z,1.10
2023-03-28T02:30:31.939Z,1.10
2023-03-28T02:33:01.398Z,1.00
2023-03-28T02:35:34.297Z,1.00
2023-03-28T02:38:13.467Z,1.00
2023-03-28T02:40:52.092Z,1.00
2023-03-28T02:43:32.482Z,1.00
2023-03-28T02:46:14.081Z,1.00
2023-03-28T02:48:56.628Z,1.00
2023-03-28T02:51:34.761Z,1.00
2023-03-28T02:54:21.969Z,1.10
2023-03-28T02:57:01.538Z,1.10
2023-03-28T02:59:34.785Z,1.10
2023-03-28T03:02:04.825Z,1.10
2023-03-28T03:04:33.097Z,1.20
2023-03-28T03:07:02.648Z,1.20
2023-03-28T03:09:33.242Z,1.20
2023-03-28T03:12:01.620Z,1.20
2023-03-28T03:14:29.786Z,1.20
2023-03-28T03:16:57.965Z,1.20
2023-03-28T03:19:26.391Z,1.30
2023-03-28T03:21:55.356Z,1.30
2023-03-28T03:24:25.050Z,1.20
2023-03-28T03:26:54.577Z,1.10
2023-03-28T03:29:22.790Z,1.00
2023-03-28T03:31:51.114Z,1.20
2023-03-28T03:34:19.491Z,1.20
2023-03-28T03:36:50.016Z,1.10
2023-03-28T03:39:18.461Z,1.10
2023-03-28T03:41:46.701Z,1.00
2023-03-28T03:44:16.389Z,1.10
2023-03-28T03:46:44.697Z,1.00
2023-03-28T03:49:13.098Z,1.00
2023-03-28T03:51:41.194Z,1.00
2023-03-28T03:54:09.452Z,1.00
2023-03-28T03:56:37.841Z,0.90
2023-03-28T03:59:06.493Z,0.90
2023-03-28T04:01:36.383Z,0.80
2023-03-28T04:04:04.500Z,0.80
2023-03-28T04:06:32.768Z,0.80
2023-03-28T04:09:01.041Z,0.80
2023-03-28T04:11:29.164Z,0.80
2023-03-28T04:13:57.366Z,0.70
2023-03-28T04:16:26.122Z,0.60
2023-03-28T04:18:55.691Z,0.70
2023-03-28T04:21:27.613Z,0.60
2023-03-28T04:23:56.809Z,0.60
2023-03-28T04:26:27.063Z,0.70
2023-03-28T04:28:56.136Z,0.60
2023-03-28T04:31:29.706Z,0.60
2023-03-28T04:34:00.444Z,0.60
2023-03-28T04:36:29.324Z,0.60
2023-03-28T04:38:58.415Z,0.60
2023-03-28T04:41:26.728Z,0.60
2023-03-28T04:43:55.060Z,0.60
2023-03-28T04:46:23.612Z,0.60
2023-03-28T04:48:56.232Z,0.60
2023-03-28T04:51:28.542Z,0.70
2023-03-28T04:53:56.788Z,0.70
2023-03-28T04:56:24.941Z,0.60
2023-03-28T04:58:53.065Z,0.60
2023-03-28T05:01:22.642Z,0.60
2023-03-28T05:03:50.891Z,0.60
2023-03-28T05:06:19.182Z,0.60
2023-03-28T05:08:48.867Z,0.60
2023-03-28T05:11:16.951Z,0.60
2023-03-28T05:13:45.259Z,0.60
2023-03-28T05:16:13.533Z,0.60
2023-03-28T05:18:41.677Z,0.60
2023-03-28T05:21:09.877Z,0.60
2023-03-28T05:23:38.113Z,0.60
2023-03-28T05:26:08.200Z,0.60
2023-03-28T05:28:36.735Z,0.60
2023-03-28T05:31:07.510Z,0.60
2023-03-28T05:33:37.862Z,0.60
2023-03-28T05:36:06.616Z,0.70
2023-03-28T05:38:34.692Z,0.70
2023-03-28T05:41:03.343Z,0.80
2023-03-28T05:43:33.106Z,0.70
2023-03-28T05:46:01.578Z,0.70
2023-03-28T05:48:29.921Z,0.70
2023-03-28T05:50:58.572Z,0.80
2023-03-28T05:53:27.004Z,0.80
2023-03-28T05:55:55.162Z,0.90
2023-03-28T05:58:23.362Z,0.80
2023-03-28T06:00:53.092Z,0.90
2023-03-28T06:03:22.260Z,0.90
2023-03-28T06:05:50.676Z,0.90
2023-03-28T06:08:18.792Z,1.00
2023-03-28T06:10:48.519Z,1.00
2023-03-28T06:13:16.708Z,1.00
2023-03-28T06:15:44.898Z,1.10
2023-03-28T06:18:14.443Z,1.10
2023-03-28T06:20:42.636Z,1.30
2023-03-28T06:23:11.104Z,1.30
2023-03-28T06:25:39.383Z,1.50
2023-03-28T06:28:07.626Z,1.50
2023-03-28T06:30:35.756Z,1.70
2023-03-28T06:33:03.999Z,1.80
2023-03-28T06:35:34.074Z,1.90
2023-03-28T06:38:02.640Z,2.00
2023-03-28T06:40:31.148Z,2.10
2023-03-28T06:42:59.557Z,2.30
2023-03-28T06:45:27.776Z,2.40
2023-03-28T06:47:56.201Z,2.50
2023-03-28T06:50:24.362Z,2.60
2023-03-28T06:52:53.898Z,2.70
2023-03-28T06:55:22.759Z,2.70
2023-03-28T06:57:50.927Z,2.70
2023-03-28T07:00:19.841Z,2.60
2023-03-28T07:02:48.006Z,2.60
2023-03-28T07:05:16.287Z,2.70
2023-03-28T07:07:44.354Z,2.70
2023-03-28T07:10:13.798Z,2.80
2023-03-28T07:12:41.851Z,3.10
2023-03-28T07:15:11.143Z,3.30
2023-03-28T07:17:39.268Z,3.50
2023-03-28T07:20:08.218Z,3.70
2023-03-28T07:22:36.591Z,3.80
2023-03-28T07:25:05.015Z,3.90
2023-03-28T07:27:34.514Z,4.00
2023-03-28T07:30:02.700Z,4.20
2023-03-28T07:32:35.750Z,4.10
2023-03-28T07:35:11.351Z,4.30
2023-03-28T07:37:39.603Z,4.30
2023-03-28T07:40:09.315Z,4.40
2023-03-28T07:42:39.135Z,4.60
2023-03-28T07:45:08.438Z,4.70
2023-03-28T07:47:36.575Z,4.70
2023-03-28T07:50:05.226Z,4.70
2023-03-28T07:52:33.580Z,4.70
2023-03-28T07:55:02.073Z,4.80
2023-03-28T07:57:30.288Z,4.90
2023-03-28T07:59:59.733Z,5.00
2023-03-28T08:02:28.102Z,5.30
2023-03-28T08:04:56.419Z,5.50
2023-03-28T08:07:25.676Z,5.70
2023-03-28T08:09:54.828Z,5.70
2023-03-28T08:12:24.497Z,5.90
2023-03-28T08:14:53.121Z,5.80
2023-03-28T08:17:23.189Z,5.70
2023-03-28T08:19:51.534Z,5.70
2023-03-28T08:22:19.880Z,5.70
2023-03-28T08:24:48.045Z,5.70
2023-03-28T08:27:16.273Z,5.90
2023-03-28T08:29:44.437Z,6.00
2023-03-28T08:32:12.690Z,6.10
2023-03-28T08:34:42.193Z,6.30
2023-03-28T08:37:10.511Z,6.40
2023-03-28T08:39:41.551Z,6.50
2023-03-28T08:42:26.507Z,6.60
2023-03-28T08:45:21.074Z,6.70
2023-03-28T08:48:01.577Z,6.90
2023-03-28T08:50:34.579Z,7.10
2023-03-28T08:53:04.981Z,6.90
2023-03-28T08:55:38.293Z,7.20
2023-03-28T08:58:07.099Z,7.30
2023-03-28T09:00:37.827Z,7.20
2023-03-28T09:03:13.375Z,7.20
2023-03-28T09:05:48.136Z,7.10
2023-03-28T09:08:29.067Z,7.20
2023-03-28T09:11:04.220Z,7.20
2023-03-28T09:13:43.316Z,7.20
2023-03-28T09:16:26.638Z,7.20
2023-03-28T09:19:11.642Z,7.40
2023-03-28T09:22:04.956Z,7.20
2023-03-28T09:24:52.266Z,7.30
2023-03-28T09:27:25.616Z,7.20
2023-03-28T09:30:01.289Z,7.30
2023-03-28T09:32:33.175Z,7.40
2023-03-28T09:35:02.079Z,7.30
2023-03-28T09:37:36.284Z,7.40
2023-03-28T09:40:17.883Z,7.30
2023-03-28T09:42:55.259Z,7.60
2023-03-28T09:45:35.063Z,7.60
2023-03-28T09:48:03.724Z,7.40
2023-03-28T09:50:32.313Z,7.70
2023-03-28T09:53:01.909Z,7.90
2023-03-28T09:55:32.146Z,7.90
2023-03-28T09:58:01.932Z,7.80
2023-03-28T10:00:30.704Z,7.80
2023-03-28T10:02:58.993Z,7.70
2023-03-28T10:05:36.732Z,7.70
2023-03-28T10:08:19.857Z,7.80
2023-03-28T10:11:00.861Z,7.90
2023-03-28T10:13:29.681Z,7.70
2023-03-28T10:15:59.648Z,7.60
2023-03-28T10:18:31.196Z,7.70
2023-03-28T10:21:14.172Z,7.60
2023-03-28T10:23:48.979Z,7.70
2023-03-28T10:26:23.408Z,7.80
2023-03-28T10:28:54.470Z,7.80
2023-03-28T10:31:29.378Z,7.80
2023-03-28T10:33:59.102Z,7.80
2023-03-28T10:36:31.463Z,7.80
2023-03-28T10:39:13.635Z,7.80
2023-03-28T10:41:53.890Z,8.00
2023-03-28T10:44:28.800Z,7.90
2023-03-28T10:46:59.310Z,8.10
2023-03-28T10:49:29.090Z,8.20
2023-03-28T10:51:57.582Z,8.40
2023-03-28T10:54:47.463Z,8.60
2023-03-28T10:57:22.186Z,8.90
2023-03-28T11:00:00.545Z,8.90
2023-03-28T11:03:00.644Z,9.20
2023-03-28T11:05:38.995Z,9.20
2023-03-28T11:08:25.772Z,9.10
2023-03-28T11:11:02.904Z,9.20
2023-03-28T11:13:37.251Z,9.50
2023-03-28T11:16:12.334Z,9.40
2023-03-28T11:18:59.853Z,9.50
2023-03-28T11:21:33.223Z,9.30
2023-03-28T11:24:11.333Z,9.50
2023-03-28T11:26:51.430Z,9.50
2023-03-28T11:29:42.043Z,9.40
2023-03-28T11:32:17.445Z,9.20
2023-03-28T11:34:50.266Z,9.50
2023-03-28T11:37:22.699Z,9.80
2023-03-28T11:39:55.641Z,10.10
2023-03-28T11:42:30.831Z,9.80
2023-03-28T11:45:08.217Z,10.00
2023-03-28T11:47:42.602Z,10.20
2023-03-28T11:50:18.304Z,9.90
2023-03-28T11:52:50.770Z,10.00
2023-03-28T11:55:21.677Z,9.90
2023-03-28T11:57:57.974Z,9.60
2023-03-28T12:00:34.138Z,9.60
2023-03-28T12:03:15.081Z,9.60
2023-03-28T12:05:49.860Z,9.60
2023-03-28T12:08:24.522Z,9.50
2023-03-28T12:10:58.639Z,9.50
2023-03-28T12:13:39.448Z,9.70
2023-03-28T12:16:15.970Z,9.60
2023-03-28T12:18:48.133Z,9.60
2023-03-28T12:21:23.097Z,9.40
2023-03-28T12:24:02.058Z,9.50
2023-03-28T12:26:39.681Z,9.60
2023-03-28T12:29:16.217Z,9.60
2023-03-28T12:31:51.796Z,9.30
2023-03-28T12:34:31.432Z,9.40
2023-03-28T12:37:11.959Z,9.30
2023-03-28T12:39:45.647Z,9.40
2023-03-28T12:42:15.855Z,9.30
2023-03-28T12:44:52.444Z,9.40
2023-03-28T12:47:25.831Z,9.30
2023-03-28T12:49:57.681Z,9.30
2023-03-28T12:52:32.010Z,9.10
2023-03-28T12:55:02.739Z,9.10
2023-03-28T12:57:46.014Z,9.00
2023-03-28T13:00:26.223Z,9.10
2023-03-28T13:03:08.352Z,9.10
2023-03-28T13:05:48.267Z,9.10
2023-03-28T13:08:24.205Z,8.90
2023-03-28T13:11:08.777Z,8.90
2023-03-28T13:13:46.808Z,9.00
2023-03-28T13:16:24.100Z,9.00
2023-03-28T13:19:07.627Z,8.90
2023-03-28T13:21:47.807Z,9.00
2023-03-28T13:24:31.485Z,8.90
2023-03-28T13:27:01.587Z,9.00
2023-03-28T13:29:46.513Z,9.00
2023-03-28T13:32:18.352Z,9.00
2023-03-28T13:34:50.589Z,9.10
2023-03-28T13:37:23.114Z,9.20
2023-03-28T13:39:53.648Z,9.30
2023-03-28T13:42:30.769Z,9.40
2023-03-28T13:45:02.866Z,9.60
2023-03-28T13:47:38.644Z,9.70
2023-03-28T13:50:17.218Z,9.80
2023-03-28T13:52:45.514Z,9.90
2023-03-28T13:55:22.034Z,10.00
2023-03-28T13:57:51.394Z,10.00
2023-03-28T14:00:24.074Z,9.90
2023-03-28T14:02:55.133Z,9.90
2023-03-28T14:05:26.323Z,9.80
2023-03-28T14:07:56.814Z,9.80
2023-03-28T14:10:31.227Z,10.10
2023-03-28T14:13:02.591Z,10.10
2023-03-28T14:15:37.484Z,10.10
2023-03-28T14:18:09.244Z,10.10
2023-03-28T14:20:39.781Z,10.00
2023-03-28T14:23:08.962Z,10.00
2023-03-28T14:25:37.268Z,10.00
2023-03-28T14:28:09.602Z,10.00
2023-03-28T14:30:42.750Z,9.90
2023-03-28T14:33:21.992Z,9.90
2023-03-28T14:36:01.782Z,9.90
2023-03-28T14:38:35.248Z,10.00
2023-03-28T14:41:14.542Z,10.00
2023-03-28T14:43:42.964Z,10.00
2023-03-28T14:46:12.327Z,10.20
2023-03-28T14:48:43.493Z,10.10
2023-03-28T14:51:14.577Z,10.00
2023-03-28T14:53:46.500Z,10.00
2023-03-28T14:56:19.284Z,10.00
2023-03-28T14:58:49.987Z,9.90
2023-03-28T15:01:23.194Z,10.00
2023-03-28T15:03:58.959Z,10.00
2023-03-28T15:06:29.308Z,10.00
2023-03-28T15:08:59.693Z,10.00
2023-03-28T15:11:32.741Z,10.10
2023-03-28T15:14:04.380Z,10.10
2023-03-28T15:16:36.984Z,10.10
2023-03-28T15:19:09.216Z,10.10
2023-03-28T15:21:39.528Z,10.00
2023-03-28T15:24:12.977Z,9.90
2023-03-28T15:26:44.722Z,9.90
2023-03-28T15:29:17.546Z,9.90
2023-03-28T15:31:46.538Z,9.90
2023-03-28T15:34:22.725Z,9.90
2023-03-28T15:36:54.326Z,9.90
2023-03-28T15:39:25.749Z,9.80
2023-03-28T15:41:56.159Z,9.80
2023-03-28T15:44:29.067Z,9.70
2023-03-28T15:47:01.721Z,9.60
2023-03-28T15:49:36.959Z,9.60
2023-03-28T15:52:09.341Z,9.60
2023-03-28T15:54:42.926Z,9.70
2023-03-28T15:57:12.508Z,9.70
2023-03-28T15:59:45.178Z,9.70
2023-03-28T16:02:32.956Z,9.70
2023-03-28T16:05:03.933Z,9.60
2023-03-28T16:07:38.593Z,9.60
2023-03-28T16:10:07.482Z,9.60
2023-03-28T16:12:35.720Z,9.50
2023-03-28T16:15:04.976Z,9.40
2023-03-28T16:17:33.727Z,9.40
2023-03-28T16:20:03.881Z,9.50
2023-03-28T16:22:32.008Z,9.40
2023-03-28T16:25:00.128Z,9.40
2023-03-28T16:27:28.227Z,9.40
2023-03-28T16:29:56.798Z,9.40
2023-03-28T16:32:25.127Z,9.40
2023-03-28T16:34:53.475Z,9.30
2023-03-28T16:37:22.938Z,9.20
2023-03-28T16:39:51.480Z,9.20
2023-03-28T16:42:20.868Z,9.00
2023-03-28T16:44:49.079Z,8.80
2023-03-28T16:47:17.222Z,8.70
2023-03-28T16:49:45.336Z,8.70
2023-03-28T16:52:13.325Z,8.70
2023-03-28T16:54:44.173Z,8.70
2023-03-28T16:57:12.330Z,8.70
2023-03-28T16:59:40.487Z,8.70
2023-03-28T17:02:09.166Z,8.70
2023-03-28T17:04:37.454Z,8.70
2023-03-28T17:07:06.104Z,8.70
2023-03-28T17:09:34.691Z,8.70
2023-03-28T17:12:04.306Z,8.70
2023-03-28T17:14:32.420Z,8.70
2023-03-28T17:17:00.766Z,8.60
2023-03-28T17:19:29.122Z,8.60
2023-03-28T17:21:57.864Z,8.60
2023-03-28T17:24:26.049Z,8.60
2023-03-28T17:26:54.360Z,8.50
2023-03-28T17:29:24.095Z,8.50
2023-03-28T17:31:52.613Z,8.50
2023-03-28T17:34:21.463Z,8.50
2023-03-28T17:36:51.059Z,8.40
2023-03-28T17:39:19.230Z,8.50
2023-03-28T17:41:47.296Z,8.40
2023-03-28T17:44:15.465Z,8.40
2023-03-28T17:46:46.827Z,8.40
2023-03-28T17:49:16.986Z,8.50
2023-03-28T17:51:46.249Z,8.40
2023-03-28T17:54:14.617Z,8.40
2023-03-28T17:56:43.240Z,8.40
2023-03-28T17:59:11.900Z,8.40
2023-03-28T18:01:41.052Z,8.40
2023-03-28T18:04:10.555Z,8.40
2023-03-28T18:06:38.728Z,8.30
2023-03-28T18:09:06.967Z,8.40
2023-03-28T18:11:39.168Z,8.30
2023-03-28T18:14:08.526Z,8.30
2023-03-28T18:16:38.686Z,8.20
2023-03-28T18:19:09.052Z,8.30
2023-03-28T18:21:38.517Z,8.30
2023-03-28T18:24:07.980Z,8.20
2023-03-28T18:26:36.109Z,8.20
2023-03-28T18:29:04.853Z,8.20
2023-03-28T18:31:33.043Z,8.20
2023-03-28T18:34:05.058Z,8.20
2023-03-28T18:36:36.953Z,8.20
2023-03-28T18:39:07.049Z,8.20
2023-03-28T18:41:35.388Z,8.20
2023-03-28T18:44:03.593Z,8.10
2023-03-28T18:46:31.735Z,8.00
2023-03-28T18:49:00.238Z,8.00
2023-03-28T18:51:28.739Z,7.90
2023-03-28T18:53:57.235Z,7.90
2023-03-28T18:56:26.737Z,7.80
2023-03-28T18:58:54.800Z,7.80
2023-03-28T19:01:23.764Z,7.80
2023-03-28T19:03:52.335Z,7.70
2023-03-28T19:06:21.106Z,7.70
2023-03-28T19:08:49.786Z,7.60
2023-03-28T19:11:19.689Z,7.50
2023-03-28T19:13:50.389Z,7.50
2023-03-28T19:16:19.701Z,7.40
2023-03-28T19:18:48.675Z,7.40
2023-03-28T19:21:17.709Z,7.30
2023-03-28T19:23:48.622Z,7.20
2023-03-28T19:26:18.189Z,7.20
2023-03-28T19:28:46.887Z,7.20
2023-03-28T19:31:17.107Z,7.20
2023-03-28T19:33:46.283Z,7.10
2023-03-28T19:36:14.447Z,7.10
2023-03-28T19:38:42.718Z,7.10
2023-03-28T19:41:17.398Z,7.10
2023-03-28T19:43:46.228Z,7.10
2023-03-28T19:46:19.526Z,7.10
2023-03-28T19:48:47.907Z,7.00
2023-03-28T19:51:17.182Z,7.00
2023-03-28T19:53:45.433Z,7.10
2023-03-28T19:56:14.111Z,7.00
2023-03-28T19:58:42.422Z,7.00
2023-03-28T20:01:10.499Z,7.10
2023-03-28T20:03:40.805Z,7.00
2023-03-28T20:06:12.317Z,7.00
2023-03-28T20:08:40.985Z,7.00
2023-03-28T20:11:09.771Z,7.00
2023-03-28T20:13:37.978Z,7.00
2023-03-28T20:16:07.690Z,7.00
2023-03-28T20:18:37.047Z,6.90
2023-03-28T20:21:09.348Z,6.90
2023-03-28T20:23:37.956Z,6.90
2023-03-28T20:26:18.561Z,6.80
2023-03-28T20:28:49.594Z,6.80
2023-03-28T20:31:18.587Z,6.90
2023-03-28T20:33:46.951Z,6.80
2023-03-28T20:36:16.513Z,6.80
2023-03-28T20:38:44.741Z,6.80
2023-03-28T20:41:13.660Z,6.80
2023-03-28T20:43:46.418Z,6.70
2023-03-28T20:46:18.311Z,6.70
2023-03-28T20:48:48.022Z,6.70
2023-03-28T20:51:18.721Z,6.70
2023-03-28T20:53:49.456Z,6.70
2023-03-28T20:56:18.886Z,6.60
2023-03-28T20:58:47.706Z,6.60
2023-03-28T21:01:17.731Z,6.60
2023-03-28T21:03:49.826Z,6.50
2023-03-28T21:06:22.327Z,6.50
2023-03-28T21:08:51.598Z,6.50
2023-03-28T21:11:22.196Z,6.50
2023-03-28T21:13:50.778Z,6.40
2023-03-28T21:16:20.988Z,6.30
2023-03-28T21:18:49.462Z,6.30
2023-03-28T21:21:20.669Z,6.30
2023-03-28T21:23:49.372Z,6.20
2023-03-28T21:26:18.890Z,6.20
2023-03-28T21:28:47.468Z,6.20
2023-03-28T21:31:18.286Z,6.20
2023-03-28T21:33:47.443Z,6.20
2023-03-28T21:36:17.862Z,6.10
2023-03-28T21:38:48.711Z,6.10
2023-03-28T21:41:18.077Z,6.10
2023-03-28T21:43:47.648Z,6.10
2023-03-28T21:46:18.322Z,6.10
2023-03-28T21:48:47.853Z,6.10
2023-03-28T21:51:17.383Z,6.10
2023-03-28T21:53:47.110Z,6.10
2023-03-28T21:56:16.726Z,6.10
2023-03-28T21:58:44.977Z,6.10
2023-03-28T22:01:14.558Z,6.10
2023-03-28T22:03:42.824Z,6.20
2023-03-28T22:06:11.464Z,6.10
2023-03-28T22:08:39.606Z,6.10
2023-03-28T22:11:14.711Z,6.10
2023-03-28T22:13:44.872Z,6.10
2023-03-28T22:16:14.171Z,6.10
2023-03-28T22:18:50.236Z,6.10
2023-03-28T22:21:18.560Z,6.10
2023-03-28T22:23:47.791Z,6.10
2023-03-28T22:26:17.925Z,6.20
2023-03-28T22:28:46.147Z,6.20
2023-03-28T22:31:16.737Z,6.20
2023-03-28T22:33:45.088Z,6.20
2023-03-28T22:36:13.624Z,6.20
2023-03-28T22:38:41.940Z,6.20
2023-03-28T22:41:10.107Z,6.20
2023-03-28T22:43:42.863Z,6.20
2023-03-28T22:46:16.393Z,6.20
2023-03-28T22:48:44.724Z,6.20
2023-03-28T22:51:13.960Z,6.20
2023-03-28T22:53:42.122Z,6.20
2023-03-28T22:56:12.327Z,6.20
2023-03-28T22:58:41.730Z,6.20
2023-03-28T23:01:10.045Z,6.20
2023-03-28T23:03:38.309Z,6.20
2023-03-28T23:06:07.265Z,6.20
2023-03-28T23:08:35.854Z,6.20
2023-03-28T23:11:04.243Z,6.20
2023-03-28T23:13:32.566Z,6.20
2023-03-28T23:16:02.728Z,6.20
2023-03-28T23:18:31.163Z,6.20
2023-03-28T23:20:59.490Z,6.20
2023-03-28T23:23:28.217Z,6.20
2023-03-28T23:25:56.311Z,6.20
2023-03-28T23:28:24.451Z,6.20
2023-03-28T23:30:52.548Z,6.20
2023-03-28T23:33:22.005Z,6.20
2023-03-28T23:35:50.437Z,6.20
2023-03-28T23:38:18.565Z,6.20
2023-03-28T23:40:46.820Z,6.20
2023-03-28T23:43:15.504Z,6.20
2023-03-28T23:45:44.809Z,6.20
2023-03-28T23:48:13.283Z,6.20
2023-03-28T23:50:43.112Z,6.20
2023-03-28T23:53:11.629Z,6.20
2023-03-28T23:55:39.969Z,6.30
2023-03-28T23:58:08.226Z,6.30
